createdAt,value
2023-04-08T00:00:47.236Z,101613.09
2023-04-08T00:03:33.003Z,101613.19
2023-04-08T00:06:18.255Z,101618.34
2023-04-08T00:09:03.925Z,101614.91
2023-04-08T00:11:48.756Z,101614.13
2023-04-08T00:14:34.164Z,101615.09
2023-04-08T00:17:19.556Z,101611.72
2023-04-08T00:20:05.754Z,101611.03
2023-04-08T00:22:52.358Z,101620.28
2023-04-08T00:25:37.375Z,101626.91
2023-04-08T00:28:22.464Z,101621.91
2023-04-08T00:31:07.389Z,101617.69
2023-04-08T00:33:52.528Z,101617.91
2023-04-08T00:36:38.187Z,101625.63
2023-04-08T00:39:23.133Z,101619.75
2023-04-08T00:42:08.187Z,101621.31
2023-04-08T00:44:53.479Z,101620.25
2023-04-08T00:47:39.182Z,101617.69
2023-04-08T00:50:24.605Z,101608.09
2023-04-08T00:53:10.347Z,101599.38
2023-04-08T00:55:55.368Z,101598.38
2023-04-08T00:58:40.676Z,101587.16
2023-04-08T01:01:57.391Z,101587.97
2023-04-08T01:05:06.743Z,101583.53
2023-04-08T01:07:53.044Z,101591.19
2023-04-08T01:10:42.764Z,101577.75
2023-04-08T01:13:31.063Z,101580.06
2023-04-08T01:16:17.947Z,101590.75
2023-04-08T01:19:08.259Z,101596.47
2023-04-08T01:21:54.909Z,101599.28
2023-04-08T01:24:44.684Z,101610.59
2023-04-08T01:27:31.885Z,101600.16
2023-04-08T01:30:22.180Z,101607.94
2023-04-08T01:33:07.464Z,101601.97
2023-04-08T01:35:54.736Z,101605.16
2023-04-08T01:38:39.829Z,101608.66
2023-04-08T01:41:25.336Z,101605.97
2023-04-08T01:44:12.244Z,101601.00
2023-04-08T01:46:57.742Z,101601.03
2023-04-08T01:49:44.044Z,101598.06
2023-04-08T01:52:30.654Z,101610.34
2023-04-08T01:55:17.965Z,101606.56
2023-04-08T01:58:06.430Z,101610.25
2023-04-08T02:00:54.565Z,101599.91
2023-04-08T02:03:42.555Z,101604.25
2023-04-08T02:06:29.532Z,101608.56
2023-04-08T02:09:14.234Z,101605.97
2023-04-08T02:11:59.200Z,101609.41
2023-04-08T02:14:44.619Z,101599.13
2023-04-08T02:17:36.443Z,101599.03
2023-04-08T02:20:31.612Z,101593.69
2023-04-08T02:23:21.605Z,101597.19
2023-04-08T02:26:14.774Z,101600.56
2023-04-08T02:29:01.320Z,101610.19
2023-04-08T02:31:50.215Z,101613.72
2023-04-08T02:34:35.597Z,101626.44
2023-04-08T02:37:20.890Z,101624.63
2023-04-08T02:40:24.873Z,101626.38
2023-04-08T02:43:09.755Z,101626.56
2023-04-08T02:45:54.528Z,101615.38
2023-04-08T02:48:40.250Z,101616.94
2023-04-08T02:51:25.946Z,101616.13
2023-04-08T02:54:10.909Z,101625.81
2023-04-08T02:56:56.847Z,101632.88
2023-04-08T02:59:41.928Z,101618.72
2023-04-08T03:02:27.014Z,101633.34
2023-04-08T03:05:12.287Z,101631.53
2023-04-08T03:07:57.565Z,101625.63
2023-04-08T03:10:42.494Z,101629.16
2023-04-08T03:13:27.287Z,101631.63
2023-04-08T03:16:12.187Z,101630.03
2023-04-08T03:18:57.733Z,101638.56
2023-04-08T03:21:42.824Z,101634.94
2023-04-08T03:24:27.859Z,101639.53
2023-04-08T03:27:13.145Z,101639.25
2023-04-08T03:29:57.985Z,101632.56
2023-04-08T03:32:43.862Z,101637.09
2023-04-08T03:35:28.963Z,101641.28
2023-04-08T03:38:14.203Z,101634.22
2023-04-08T03:40:59.179Z,101633.25
2023-04-08T03:43:44.300Z,101644.59
2023-04-08T03:46:29.385Z,101640.53
2023-04-08T03:49:14.569Z,101645.66
2023-04-08T03:51:59.776Z,101640.50
2023-04-08T03:54:44.943Z,101640.38
2023-04-08T03:57:29.807Z,101642.31
2023-04-08T04:00:15.285Z,101643.94
2023-04-08T04:03:00.639Z,101649.16
2023-04-08T04:05:45.692Z,101648.88
2023-04-08T04:08:30.652Z,101655.13
2023-04-08T04:11:16.253Z,101658.41
2023-04-08T04:14:01.864Z,101657.66
2023-04-08T04:16:46.820Z,101670.69
2023-04-08T04:19:31.988Z,101668.06
2023-04-08T04:22:17.090Z,101677.59
2023-04-08T04:25:02.468Z,101674.06
2023-04-08T04:27:47.146Z,101677.41
2023-04-08T04:30:32.432Z,101675.56
2023-04-08T04:33:17.417Z,101673.03
2023-04-08T04:36:02.441Z,101680.06
2023-04-08T04:38:50.172Z,101675.50
2023-04-08T04:41:38.825Z,101686.78
2023-04-08T04:44:24.268Z,101681.69
2023-04-08T04:47:09.732Z,101683.63
2023-04-08T04:49:54.989Z,101682.53
2023-04-08T04:52:39.817Z,101686.88
2023-04-08T04:55:24.740Z,101697.84
2023-04-08T04:58:09.582Z,101694.50
2023-04-08T05:00:54.854Z,101709.09
2023-04-08T05:03:39.709Z,101707.38
2023-04-08T05:06:24.904Z,101709.16
2023-04-08T05:09:09.646Z,101707.84
2023-04-08T05:11:54.379Z,101713.63
2023-04-08T05:14:39.762Z,101712.53
2023-04-08T05:17:24.994Z,101709.16
2023-04-08T05:20:10.444Z,101709.19
2023-04-08T05:22:55.237Z,101709.38
2023-04-08T05:25:41.387Z,101710.41
2023-04-08T05:28:26.411Z,101709.34
2023-04-08T05:31:12.388Z,101719.75
2023-04-08T05:33:57.626Z,101722.38
2023-04-08T05:36:43.115Z,101714.69
2023-04-08T05:39:28.405Z,101724.84
2023-04-08T05:42:14.150Z,101727.34
2023-04-08T05:45:00.151Z,101728.16
2023-04-08T05:47:44.957Z,101728.13
2023-04-08T05:50:29.775Z,101742.88
2023-04-08T05:53:14.753Z,101732.19
2023-04-08T05:55:59.757Z,101738.19
2023-04-08T05:58:44.823Z,101733.84
2023-04-08T06:01:29.765Z,101736.34
2023-04-08T06:04:15.063Z,101739.69
2023-04-08T06:07:03.149Z,101750.09
2023-04-08T06:09:47.818Z,101754.28
2023-04-08T06:12:36.600Z,101759.38
2023-04-08T06:15:23.148Z,101762.84
2023-04-08T06:18:07.985Z,101768.13
2023-04-08T06:20:53.318Z,101762.91
2023-04-08T06:23:38.089Z,101773.41
2023-04-08T06:26:23.245Z,101773.19
2023-04-08T06:29:08.639Z,101781.09
2023-04-08T06:31:54.183Z,101778.59
2023-04-08T06:34:38.989Z,101773.41
2023-04-08T06:37:24.656Z,101774.88
2023-04-08T06:40:10.173Z,101781.06
2023-04-08T06:42:55.512Z,101777.59
2023-04-08T06:45:40.396Z,101778.38
2023-04-08T06:48:31.001Z,101790.72
2023-04-08T06:51:17.721Z,101785.59
2023-04-08T06:54:02.606Z,101791.66
2023-04-08T06:56:48.229Z,101790.72
2023-04-08T06:59:33.377Z,101799.38
2023-04-08T07:02:18.644Z,101793.38
2023-04-08T07:05:03.937Z,101797.72
2023-04-08T07:07:49.248Z,101802.91
2023-04-08T07:10:37.501Z,101800.28
2023-04-08T07:13:23.712Z,101804.81
2023-04-08T07:16:09.053Z,101809.88
2023-04-08T07:18:54.547Z,101805.50
2023-04-08T07:21:39.802Z,101807.25
2023-04-08T07:24:24.824Z,101811.59
2023-04-08T07:27:09.921Z,101817.78
2023-04-08T07:29:54.851Z,101812.59
2023-04-08T07:32:40.562Z,101813.47
2023-04-08T07:35:26.045Z,101826.41
2023-04-08T07:38:12.469Z,101822.41
2023-04-08T07:40:57.476Z,101813.81
2023-04-08T07:43:43.050Z,101827.63
2023-04-08T07:46:27.861Z,101831.16
2023-04-08T07:49:13.138Z,101828.44
2023-04-08T07:51:58.425Z,101822.56
2023-04-08T07:54:43.794Z,101823.50
2023-04-08T07:57:28.697Z,101825.22
2023-04-08T08:00:20.644Z,101830.63
2023-04-08T08:03:05.544Z,101835.84
2023-04-08T08:05:50.636Z,101841.03
2023-04-08T08:08:36.702Z,101834.03
2023-04-08T08:11:22.452Z,101836.81
2023-04-08T08:14:07.965Z,101841.88
2023-04-08T08:16:54.044Z,101853.75
2023-04-08T08:19:38.959Z,101860.66
2023-04-08T08:22:23.774Z,101857.13
2023-04-08T08:25:09.802Z,101873.53
2023-04-08T08:27:55.400Z,101874.28
2023-04-08T08:30:40.777Z,101872.44
2023-04-08T08:33:26.520Z,101875.97
2023-04-08T08:36:11.673Z,101871.69
2023-04-08T08:38:56.860Z,101876.97
2023-04-08T08:41:43.199Z,101878.59
2023-04-08T08:44:30.503Z,101875.13
2023-04-08T08:47:16.854Z,101876.00
2023-04-08T08:50:03.075Z,101875.25
2023-04-08T08:52:52.073Z,101872.94
2023-04-08T08:56:05.753Z,101875.59
2023-04-08T08:58:44.719Z,101883.34
2023-04-08T09:01:38.257Z,101885.09
2023-04-08T09:04:24.548Z,101897.97
2023-04-08T09:07:13.672Z,101902.28
2023-04-08T09:09:59.625Z,101897.72
2023-04-08T09:12:55.881Z,101895.09
2023-04-08T09:16:04.891Z,101897.63
2023-04-08T09:18:50.026Z,101894.41
2023-04-08T09:21:35.444Z,101900.34
2023-04-08T09:24:30.842Z,101904.88
2023-04-08T09:27:15.887Z,101903.00
2023-04-08T09:30:14.850Z,101911.44
2023-04-08T09:33:01.225Z,101908.19
2023-04-08T09:35:46.632Z,101913.38
2023-04-08T09:38:31.730Z,101922.88
2023-04-08T09:41:18.298Z,101913.41
2023-04-08T09:44:11.983Z,101925.41
2023-04-08T09:47:20.414Z,101927.19
2023-04-08T09:50:09.565Z,101924.75
2023-04-08T09:53:02.096Z,101918.59
2023-04-08T09:55:52.239Z,101932.84
2023-04-08T09:58:52.272Z,101931.00
2023-04-08T10:01:47.294Z,101930.78
2023-04-08T10:04:39.093Z,101934.19
2023-04-08T10:07:24.181Z,101937.44
2023-04-08T10:10:13.036Z,101940.94
2023-04-08T10:12:58.674Z,101943.66
2023-04-08T10:15:46.030Z,101942.06
2023-04-08T10:18:31.966Z,101934.09
2023-04-08T10:21:33.112Z,101936.72
2023-04-08T10:24:24.283Z,101937.75
2023-04-08T10:27:39.717Z,101939.53
2023-04-08T10:30:27.241Z,101939.56
2023-04-08T10:33:16.681Z,101942.09
2023-04-08T10:36:11.326Z,101951.63
2023-04-08T10:38:58.183Z,101957.75
2023-04-08T10:41:48.390Z,101964.50
2023-04-08T10:44:34.316Z,101961.16
2023-04-08T10:47:25.865Z,101975.72
2023-04-08T10:50:20.799Z,101966.25
2023-04-08T10:53:06.052Z,101967.88
2023-04-08T10:55:52.946Z,101968.81
2023-04-08T10:58:53.810Z,101961.09
2023-04-08T11:01:40.655Z,101956.00
2023-04-08T11:04:26.436Z,101957.78
2023-04-08T11:07:12.537Z,101967.38
2023-04-08T11:09:57.561Z,101961.44
2023-04-08T11:12:43.109Z,101971.84
2023-04-08T11:15:30.663Z,101972.69
2023-04-08T11:18:18.942Z,101969.06
2023-04-08T11:21:08.543Z,101960.53
2023-04-08T11:23:55.701Z,101962.44
2023-04-08T11:26:42.042Z,101959.06
2023-04-08T11:29:27.881Z,101954.63
2023-04-08T11:32:13.014Z,101952.03
2023-04-08T11:35:02.256Z,101950.28
2023-04-08T11:37:49.547Z,101954.75
2023-04-08T11:40:34.986Z,101956.50
2023-04-08T11:43:20.102Z,101954.88
2023-04-08T11:46:13.653Z,101958.38
2023-04-08T11:49:08.616Z,101966.09
2023-04-08T11:52:00.724Z,101964.44
2023-04-08T11:54:49.530Z,101971.47
2023-04-08T11:57:36.517Z,101953.25
2023-04-08T12:00:22.843Z,101968.78
2023-04-08T12:03:08.478Z,101951.78
2023-04-08T12:05:55.033Z,101947.47
2023-04-08T12:08:40.265Z,101949.09
2023-04-08T12:11:25.122Z,101963.81
2023-04-08T12:14:10.251Z,101958.63
2023-04-08T12:16:55.226Z,101967.38
2023-04-08T12:19:40.212Z,101970.06
2023-04-08T12:22:25.585Z,101974.47
2023-04-08T12:25:10.974Z,101964.00
2023-04-08T12:27:57.023Z,101970.22
2023-04-08T12:30:42.144Z,101967.63
2023-04-08T12:33:27.204Z,101965.03
2023-04-08T12:36:13.769Z,101965.84
2023-04-08T12:39:02.294Z,101963.41
2023-04-08T12:41:47.921Z,101960.88
2023-04-08T12:44:32.725Z,101964.44
2023-04-08T12:47:17.687Z,101958.34
2023-04-08T12:50:02.963Z,101960.94
2023-04-08T12:52:48.013Z,101963.50
2023-04-08T12:55:33.084Z,101966.16
2023-04-08T12:58:18.289Z,101954.19
2023-04-08T13:01:13.213Z,101961.91
2023-04-08T13:03:58.759Z,101957.59
2023-04-08T13:06:43.947Z,101963.78
2023-04-08T13:09:30.832Z,101953.44
2023-04-08T13:12:16.204Z,101951.84
2023-04-08T13:15:01.377Z,101957.00
2023-04-08T13:17:46.483Z,101958.03
2023-04-08T13:20:31.722Z,101958.00
2023-04-08T13:23:17.940Z,101952.78
2023-04-08T13:26:07.659Z,101958.81
2023-04-08T13:28:57.198Z,101958.00
2023-04-08T13:31:42.780Z,101956.22
2023-04-08T13:34:28.029Z,101957.88
2023-04-08T13:37:13.240Z,101967.41
2023-04-08T13:39:59.101Z,101963.13
2023-04-08T13:42:45.484Z,101961.34
2023-04-08T13:45:32.964Z,101961.31
2023-04-08T13:48:17.756Z,101963.00
2023-04-08T13:51:04.349Z,101958.69
2023-04-08T13:53:49.233Z,101968.34
2023-04-08T13:56:35.619Z,101964.84
2023-04-08T13:59:20.409Z,101957.94
2023-04-08T14:02:07.420Z,101958.69
2023-04-08T14:04:53.513Z,101960.44
2023-04-08T14:07:38.844Z,101960.47
2023-04-08T14:10:23.689Z,101964.72
2023-04-08T14:13:09.276Z,101963.75
2023-04-08T14:16:02.423Z,101959.44
2023-04-08T14:18:47.444Z,101964.72
2023-04-08T14:21:33.290Z,101962.13
2023-04-08T14:24:17.966Z,101970.88
2023-04-08T14:27:03.909Z,101964.81
2023-04-08T14:29:48.695Z,101966.50
2023-04-08T14:32:34.143Z,101968.22
2023-04-08T14:35:19.264Z,101973.47
2023-04-08T14:38:04.831Z,101967.47
2023-04-08T14:40:52.216Z,101972.66
2023-04-08T14:43:37.302Z,101972.56
2023-04-08T14:46:22.929Z,101969.03
2023-04-08T14:49:07.882Z,101975.97
2023-04-08T14:51:53.588Z,101975.94
2023-04-08T14:54:39.393Z,101975.06
2023-04-08T14:57:25.514Z,101978.44
2023-04-08T15:00:12.528Z,101969.75
2023-04-08T15:02:59.664Z,101978.44
2023-04-08T15:05:45.597Z,101978.44
2023-04-08T15:08:30.657Z,101974.97
2023-04-08T15:11:15.735Z,101978.38
2023-04-08T15:14:02.369Z,101982.78
2023-04-08T15:16:48.014Z,101987.09
2023-04-08T15:19:32.860Z,101982.69
2023-04-08T15:22:19.421Z,101990.56
2023-04-08T15:25:05.471Z,101984.56
2023-04-08T15:27:51.213Z,101992.22
2023-04-08T15:30:36.354Z,101990.50
2023-04-08T15:33:22.214Z,102004.41
2023-04-08T15:36:09.185Z,101998.38
2023-04-08T15:38:54.708Z,101994.81
2023-04-08T15:41:40.570Z,102001.75
2023-04-08T15:44:25.845Z,102001.69
2023-04-08T15:47:11.255Z,102006.91
2023-04-08T15:49:57.249Z,102006.00
2023-04-08T15:52:43.987Z,102008.59
2023-04-08T15:55:30.433Z,102008.53
2023-04-08T15:58:16.333Z,102009.47
2023-04-08T16:01:01.526Z,102013.81
2023-04-08T16:03:48.270Z,102013.78
2023-04-08T16:06:33.558Z,102014.66
2023-04-08T16:09:22.775Z,102019.00
2023-04-08T16:12:07.581Z,102010.28
2023-04-08T16:14:52.656Z,102017.19
2023-04-08T16:17:38.271Z,102018.91
2023-04-08T16:20:22.996Z,102018.06
2023-04-08T16:23:08.224Z,102019.78
2023-04-08T16:25:53.578Z,102021.50
2023-04-08T16:28:40.236Z,102018.91
2023-04-08T16:31:27.032Z,102031.03
2023-04-08T16:34:12.714Z,102028.53
2023-04-08T16:36:57.962Z,102031.09
2023-04-08T16:39:43.229Z,102030.19
2023-04-08T16:42:28.487Z,102033.81
2023-04-08T16:45:13.947Z,102031.84
2023-04-08T16:47:58.914Z,102030.09
2023-04-08T16:50:44.061Z,102030.09
2023-04-08T16:53:29.211Z,102035.28
2023-04-08T16:56:15.627Z,102034.44
2023-04-08T16:59:00.538Z,102033.53
2023-04-08T17:01:47.267Z,102038.66
2023-04-08T17:04:32.523Z,102039.59
2023-04-08T17:07:17.617Z,102037.03
2023-04-08T17:10:04.971Z,102043.09
2023-04-08T17:12:51.662Z,102051.75
2023-04-08T17:15:38.220Z,102043.06
2023-04-08T17:18:23.327Z,102041.34
2023-04-08T17:21:09.124Z,102053.34
2023-04-08T17:23:54.193Z,102052.50
2023-04-08T17:26:42.040Z,102054.22
2023-04-08T17:29:27.369Z,102060.19
2023-04-08T17:32:12.608Z,102058.44
2023-04-08T17:34:57.659Z,102065.25
2023-04-08T17:37:42.525Z,102067.91
2023-04-08T17:40:27.692Z,102066.88
2023-04-08T17:43:13.809Z,102069.59
2023-04-08T17:46:02.037Z,102067.78
2023-04-08T17:48:46.923Z,102067.78
2023-04-08T17:51:33.976Z,102068.63
2023-04-08T17:54:19.233Z,102070.41
2023-04-08T17:57:04.252Z,102069.63
2023-04-08T17:59:52.273Z,102072.97
2023-04-08T18:02:38.123Z,102070.28
2023-04-08T18:05:23.699Z,102075.50
2023-04-08T18:08:08.695Z,102080.63
2023-04-08T18:10:53.659Z,102080.66
2023-04-08T18:13:38.847Z,102085.94
2023-04-08T18:16:24.492Z,102080.63
2023-04-08T18:19:09.883Z,102087.56
2023-04-08T18:21:56.743Z,102080.75
2023-04-08T18:24:43.828Z,102081.69
2023-04-08T18:27:30.495Z,102082.50
2023-04-08T18:30:15.615Z,102087.69
2023-04-08T18:33:02.244Z,102084.16
2023-04-08T18:35:55.723Z,102087.66
2023-04-08T18:38:42.283Z,102092.00
2023-04-08T18:41:29.167Z,102092.69
2023-04-08T18:44:13.867Z,102104.78
2023-04-08T18:46:59.642Z,102101.44
2023-04-08T18:49:47.338Z,102104.00
2023-04-08T18:52:32.473Z,102108.19
2023-04-08T18:55:17.815Z,102105.50
2023-04-08T18:58:04.952Z,102105.59
2023-04-08T19:00:50.009Z,102106.50
2023-04-08T19:03:38.620Z,102112.50
2023-04-08T19:06:24.121Z,102112.31
2023-04-08T19:09:09.780Z,102102.00
2023-04-08T19:11:55.883Z,102108.06
2023-04-08T19:14:41.946Z,102104.72
2023-04-08T19:17:28.831Z,102108.06
2023-04-08T19:20:13.849Z,102101.94
2023-04-08T19:22:59.502Z,102105.25
2023-04-08T19:25:46.643Z,102105.97
2023-04-08T19:28:35.073Z,102108.56
2023-04-08T19:31:21.918Z,102105.88
2023-04-08T19:34:06.580Z,102107.66
2023-04-08T19:36:51.447Z,102113.53
2023-04-08T19:39:36.234Z,102110.88
2023-04-08T19:42:24.140Z,102105.88
2023-04-08T19:45:10.710Z,102108.34
2023-04-08T19:47:56.109Z,102110.84
2023-04-08T19:50:41.781Z,102109.84
2023-04-08T19:53:27.365Z,102107.25
2023-04-08T19:56:12.326Z,102112.72
2023-04-08T19:58:58.113Z,102108.44
2023-04-08T20:01:43.092Z,102114.50
2023-04-08T20:04:28.155Z,102116.88
2023-04-08T20:07:13.893Z,102119.72
2023-04-08T20:09:59.194Z,102117.22
2023-04-08T20:12:44.108Z,102121.63
2023-04-08T20:15:29.529Z,102119.97
2023-04-08T20:18:17.877Z,102119.22
2023-04-08T20:21:05.070Z,102121.13
2023-04-08T20:23:50.401Z,102119.16
2023-04-08T20:26:35.706Z,102134.53
2023-04-08T20:29:21.738Z,102122.69
2023-04-08T20:32:07.251Z,102124.09
2023-04-08T20:34:52.346Z,102118.38
2023-04-08T20:37:38.198Z,102124.53
2023-04-08T20:40:23.357Z,102122.69
2023-04-08T20:43:09.796Z,102122.81
2023-04-08T20:45:54.776Z,102126.84
2023-04-08T20:48:40.193Z,102124.22
2023-04-08T20:51:25.191Z,102124.88
2023-04-08T20:54:10.496Z,102128.31
2023-04-08T20:56:55.722Z,102130.41
2023-04-08T20:59:41.183Z,102134.69
2023-04-08T21:02:27.462Z,102131.22
2023-04-08T21:05:14.005Z,102132.34
2023-04-08T21:07:59.235Z,102136.66
2023-04-08T21:10:45.702Z,102133.22
2023-04-08T21:13:32.305Z,102134.81
2023-04-08T21:16:18.626Z,102139.47
2023-04-08T21:19:04.188Z,102139.00
2023-04-08T21:21:52.880Z,102134.34
2023-04-08T21:24:39.330Z,102130.75
2023-04-08T21:27:36.213Z,102137.19
2023-04-08T21:30:23.711Z,102138.00
2023-04-08T21:33:09.103Z,102129.84
2023-04-08T21:35:54.363Z,102137.63
2023-04-08T21:38:39.397Z,102136.56
2023-04-08T21:41:26.816Z,102140.94
2023-04-08T21:44:15.722Z,102140.34
2023-04-08T21:47:01.928Z,102145.31
2023-04-08T21:49:48.998Z,102146.91
2023-04-08T21:52:34.062Z,102148.97
2023-04-08T21:55:21.964Z,102141.25
2023-04-08T21:58:07.144Z,102148.97
2023-04-08T22:00:52.966Z,102144.44
2023-04-08T22:03:38.158Z,102144.66
2023-04-08T22:06:32.307Z,102144.31
2023-04-08T22:09:17.883Z,102148.31
2023-04-08T22:12:03.436Z,102147.13
2023-04-08T22:14:48.648Z,102152.00
2023-04-08T22:17:34.607Z,102152.50
2023-04-08T22:20:19.324Z,102146.19
2023-04-08T22:23:04.316Z,102154.66
2023-04-08T22:25:50.373Z,102152.69
2023-04-08T22:28:35.198Z,102149.34
2023-04-08T22:31:20.654Z,102144.69
2023-04-08T22:34:05.992Z,102146.28
2023-04-08T22:36:51.274Z,102154.63
2023-04-08T22:39:36.580Z,102156.50
2023-04-08T22:42:22.266Z,102153.88
2023-04-08T22:45:07.097Z,102154.97
2023-04-08T22:47:54.131Z,102160.56
2023-04-08T22:50:39.273Z,102160.03
2023-04-08T22:53:24.127Z,102159.00
2023-04-08T22:56:09.085Z,102163.34
2023-04-08T22:58:54.333Z,102160.88
2023-04-08T23:01:41.499Z,102163.28
2023-04-08T23:04:26.883Z,102154.31
2023-04-08T23:07:12.406Z,102161.75
2023-04-08T23:09:57.370Z,102157.28
2023-04-08T23:12:42.526Z,102167.00
2023-04-08T23:15:27.414Z,102168.91
2023-04-08T23:18:12.320Z,102166.13
2023-04-08T23:20:58.010Z,102162.63
2023-04-08T23:23:43.142Z,102163.69
2023-04-08T23:26:28.302Z,102155.03
2023-04-08T23:29:13.159Z,102152.75
2023-04-08T23:31:59.672Z,102154.75
2023-04-08T23:34:44.711Z,102161.31
2023-04-08T23:37:30.188Z,102150.06
2023-04-08T23:40:15.242Z,102145.03
2023-04-08T23:43:00.913Z,102151.91
2023-04-08T23:45:45.880Z,102148.31
2023-04-08T23:48:30.804Z,102149.78
2023-04-08T23:51:15.892Z,102145.34
2023-04-08T23:54:00.928Z,102145.78
2023-04-08T23:56:45.936Z,102138.81
2023-04-08T23:59:31.513Z,102137.22
